Aviation Digital Data Service (ADDS)

Output produced by METARs form (1519 UTC 21 July 2017)
found at http://www.aviationweather.gov/adds/metars/
 
KGED 211454Z AUTO 34004KT 10SM CLR 32/22 A2996 RMK AO2 SLP143 T03170217 50005